Time;durP1;ratioP1;P1;durP2;ratioP2;P2;SDS_P1;SDS_P2;PMS_P1;PMS_P2;Temp;Humidity;BMP_temperature;BMP_pressure;BME280_temperature;BME280_humidity;BME280_pressure;Samples;Min_cycle;Max_cycle;Signal;HPM_P1;HPM_P2
2021/07/10 00:02:06;;;;;;;17.30;14.20;;;17.00;99.90;;;;;;4768819;29;20535;-77
2021/07/10 00:04:32;;;;;;;19.92;14.48;;;16.90;99.90;;;;;;4787580;29;20411;-77
2021/07/10 00:06:59;;;;;;;21.27;14.75;;;16.90;99.90;;;;;;4778114;29;20039;-77
2021/07/10 00:09:27;;;;;;;19.60;14.40;;;16.90;99.90;;;;;;4800009;29;20038;-77
2021/07/10 00:11:54;;;;;;;18.55;13.93;;;16.90;99.90;;;;;;4772724;29;20030;-77
2021/07/10 00:14:21;;;;;;;18.42;14.18;;;16.90;99.90;;;;;;4770040;29;20054;-77
2021/07/10 00:16:48;;;;;;;22.23;15.23;;;16.90;99.90;;;;;;4769307;29;20038;-77
2021/07/10 00:19:14;;;;;;;18.55;14.10;;;16.90;99.90;;;;;;4777936;29;20062;-77
2021/07/10 00:21:41;;;;;;;18.00;12.80;;;16.90;99.90;;;;;;4801869;29;20050;-77
2021/07/10 00:24:07;;;;;;;18.30;13.82;;;16.90;99.90;;;;;;4776665;29;20054;-77
2021/07/10 00:26:34;;;;;;;19.95;14.70;;;16.90;99.90;;;;;;4773979;29;21178;-77
2021/07/10 00:29:00;;;;;;;21.05;12.85;;;17.00;99.90;;;;;;4757941;29;20070;-77
2021/07/10 00:31:27;;;;;;;18.73;13.10;;;17.00;99.90;;;;;;4803665;29;20493;-77
2021/07/10 00:33:53;;;;;;;18.38;13.68;;;17.00;99.90;;;;;;4810059;29;20034;-77
2021/07/10 00:36:20;;;;;;;19.00;14.70;;;16.90;99.90;;;;;;4794918;29;20085;-83
2021/07/10 00:38:47;;;;;;;19.35;13.10;;;16.90;99.90;;;;;;4790323;29;20553;-82
2021/07/10 00:41:13;;;;;;;22.95;14.73;;;16.90;99.90;;;;;;4763036;29;20047;-82
2021/07/10 00:43:39;;;;;;;16.52;13.00;;;16.80;99.90;;;;;;4774283;29;20043;-83
2021/07/10 00:46:07;;;;;;;21.38;14.40;;;16.80;99.90;;;;;;4806672;29;20053;-82
2021/07/10 00:48:34;;;;;;;21.90;15.70;;;16.80;99.90;;;;;;4759298;29;20119;-82
2021/07/10 00:51:01;;;;;;;16.55;13.38;;;16.80;99.90;;;;;;4792566;29;20059;-82
2021/07/10 00:53:28;;;;;;;22.02;15.43;;;16.90;99.90;;;;;;4788151;29;20062;-82
2021/07/10 00:55:55;;;;;;;23.08;14.93;;;16.90;99.90;;;;;;4802961;29;20042;-82
2021/07/10 00:58:22;;;;;;;20.50;15.75;;;16.90;99.90;;;;;;4793225;29;21410;-82
2021/07/10 01:00:49;;;;;;;21.77;16.55;;;16.90;99.90;;;;;;4773985;29;20046;-82
2021/07/10 01:03:15;;;;;;;22.95;15.32;;;16.90;99.90;;;;;;4773669;29;20476;-83
2021/07/10 01:05:42;;;;;;;21.33;15.32;;;16.90;99.90;;;;;;4772053;29;20491;-83
2021/07/10 01:08:08;;;;;;;20.67;15.02;;;17.00;99.90;;;;;;4806995;29;20509;-82
2021/07/10 01:10:35;;;;;;;20.60;14.70;;;17.00;99.90;;;;;;4808831;29;20047;-82
2021/07/10 01:13:02;;;;;;;19.98;14.38;;;17.10;99.90;;;;;;4787360;29;20487;-82
2021/07/10 01:15:28;;;;;;;21.25;14.80;;;17.10;99.90;;;;;;4740497;29;20384;-82
2021/07/10 01:17:58;;;;;;;23.25;15.88;;;17.20;99.90;;;;;;4802580;29;20627;-83
2021/07/10 01:20:27;;;;;;;22.95;14.23;;;17.30;99.90;;;;;;4783379;29;20496;-83
2021/07/10 01:22:56;;;;;;;21.70;15.90;;;17.30;99.90;;;;;;4801627;29;20043;-77
2021/07/10 01:25:25;;;;;;;21.10;15.15;;;17.30;99.90;;;;;;4784228;29;20372;-77
2021/07/10 01:27:52;;;;;;;24.10;15.07;;;17.30;99.90;;;;;;4786212;29;20039;-77
2021/07/10 01:30:21;;;;;;;18.45;13.38;;;17.30;99.90;;;;;;4784960;29;20054;-77
2021/07/10 01:32:50;;;;;;;23.83;15.63;;;17.40;99.90;;;;;;4754920;29;20054;-77
2021/07/10 01:35:17;;;;;;;22.00;15.05;;;17.40;99.90;;;;;;4802310;29;20035;-77
2021/07/10 01:37:44;;;;;;;22.33;15.55;;;17.40;99.90;;;;;;4754354;29;20050;-77
2021/07/10 01:40:13;;;;;;;19.83;14.80;;;17.40;99.90;;;;;;4768704;29;20043;-77
2021/07/10 01:42:40;;;;;;;20.90;14.65;;;17.40;99.90;;;;;;4783147;29;20049;-77
2021/07/10 01:45:07;;;;;;;22.42;16.02;;;17.40;99.90;;;;;;4769434;29;20070;-77
2021/07/10 01:47:33;;;;;;;22.98;15.50;;;17.40;99.90;;;;;;4775779;29;20387;-77
2021/07/10 01:50:00;;;;;;;21.42;15.75;;;17.40;99.90;;;;;;4763391;29;20070;-77
2021/07/10 01:52:26;;;;;;;24.58;16.73;;;17.40;99.90;;;;;;4760068;29;20055;-77
2021/07/10 01:54:53;;;;;;;24.65;16.65;;;17.40;99.90;;;;;;4773139;29;20061;-77
2021/07/10 01:57:19;;;;;;;27.90;16.92;;;17.40;99.90;;;;;;4774821;29;20047;-77
2021/07/10 01:59:46;;;;;;;24.75;15.82;;;17.30;99.90;;;;;;4787442;29;20050;-77
2021/07/10 02:02:12;;;;;;;19.92;14.38;;;17.20;99.90;;;;;;4756356;29;20468;-77
2021/07/10 02:04:47;;;;;;;23.00;16.52;;;17.10;99.90;;;;;;4768709;29;20054;-77
2021/07/10 02:07:14;;;;;;;23.77;15.73;;;17.00;99.90;;;;;;4772805;29;20089;-77
2021/07/10 02:09:42;;;;;;;23.52;16.58;;;17.00;99.90;;;;;;4769495;29;20419;-77
2021/07/10 02:12:10;;;;;;;21.17;15.60;;;16.90;99.90;;;;;;4775256;29;20051;-77
2021/07/10 02:14:37;;;;;;;22.88;16.38;;;16.90;99.90;;;;;;4787673;29;20035;-76
2021/07/10 02:17:04;;;;;;;22.10;16.08;;;17.00;99.90;;;;;;4804620;29;20388;-77
2021/07/10 02:19:31;;;;;;;26.55;18.08;;;17.00;99.90;;;;;;4788869;29;20502;-77
2021/07/10 02:21:58;;;;;;;23.63;16.85;;;17.00;99.90;;;;;;4785651;29;20524;-77
2021/07/10 02:24:25;;;;;;;24.45;16.70;;;17.00;99.90;;;;;;4804046;29;20042;-77
2021/07/10 02:26:51;;;;;;;21.45;15.60;;;17.00;99.90;;;;;;4755128;29;20050;-77
2021/07/10 02:29:18;;;;;;;22.38;15.52;;;17.00;99.90;;;;;;4772784;29;20050;-77
2021/07/10 02:31:44;;;;;;;21.15;15.30;;;17.00;99.90;;;;;;4786553;29;20053;-77
2021/07/10 02:34:11;;;;;;;22.15;15.02;;;17.00;99.90;;;;;;4771945;29;20046;-77
2021/07/10 02:36:37;;;;;;;23.23;14.60;;;17.00;99.90;;;;;;4772708;29;20050;-77
2021/07/10 02:39:04;;;;;;;20.17;14.73;;;17.00;99.90;;;;;;4771156;29;20061;-77
2021/07/10 02:41:31;;;;;;;21.23;15.30;;;16.90;99.90;;;;;;4801551;29;20053;-77
2021/07/10 02:43:58;;;;;;;22.77;15.32;;;16.90;99.90;;;;;;4784778;29;20069;-77
2021/07/10 02:46:24;;;;;;;27.92;15.98;;;16.90;99.90;;;;;;4771064;29;20058;-77
2021/07/10 02:48:51;;;;;;;24.67;15.77;;;16.80;99.90;;;;;;4774137;29;20042;-77
2021/07/10 02:51:17;;;;;;;21.52;15.38;;;16.70;99.90;;;;;;4771957;29;20054;-77
2021/07/10 02:53:44;;;;;;;19.63;14.60;;;16.70;99.90;;;;;;4771192;29;20082;-77
2021/07/10 02:56:10;;;;;;;20.38;14.93;;;16.60;99.90;;;;;;4772483;29;20058;-77
2021/07/10 02:58:36;;;;;;;21.90;14.32;;;16.60;99.90;;;;;;4755466;29;20051;-77
2021/07/10 03:01:03;;;;;;;18.35;13.98;;;16.50;99.90;;;;;;4770349;29;20065;-77
2021/07/10 03:03:29;;;;;;;21.90;14.55;;;16.50;99.90;;;;;;4774253;29;20050;-77
2021/07/10 03:05:56;;;;;;;19.95;14.55;;;16.40;99.90;;;;;;4799013;29;20066;-77
2021/07/10 03:08:22;;;;;;;20.92;14.38;;;16.40;99.90;;;;;;4769089;29;20051;-77
2021/07/10 03:10:49;;;;;;;21.80;14.82;;;16.30;99.90;;;;;;4783377;29;20387;-77
2021/07/10 03:13:15;;;;;;;22.95;15.18;;;16.20;99.90;;;;;;4785164;29;20054;-77
2021/07/10 03:15:43;;;;;;;20.70;14.88;;;16.20;99.90;;;;;;4800373;29;20498;-77
2021/07/10 03:18:10;;;;;;;19.65;14.40;;;16.20;99.90;;;;;;4783212;29;20434;-77
2021/07/10 03:20:36;;;;;;;17.60;12.95;;;16.10;99.90;;;;;;4767659;29;20056;-77
2021/07/10 03:23:03;;;;;;;21.42;14.00;;;16.10;99.90;;;;;;4782721;29;20078;-77
2021/07/10 03:25:29;;;;;;;18.50;13.50;;;16.10;99.90;;;;;;4783348;29;20054;-77
2021/07/10 03:27:57;;;;;;;19.95;13.90;;;16.00;99.90;;;;;;4799248;29;20042;-77
2021/07/10 03:30:25;;;;;;;21.85;15.50;;;16.00;99.90;;;;;;4768626;29;20062;-77
2021/07/10 03:32:51;;;;;;;19.48;14.57;;;16.10;99.90;;;;;;4782150;29;20043;-77
2021/07/10 03:35:19;;;;;;;21.88;14.43;;;16.00;99.90;;;;;;4782410;29;20062;-77
2021/07/10 03:37:47;;;;;;;19.52;14.25;;;16.00;99.90;;;;;;4782872;29;20511;-77
2021/07/10 03:40:16;;;;;;;22.75;14.27;;;16.00;99.90;;;;;;4782574;29;20365;-76
2021/07/10 03:42:43;;;;;;;18.42;13.73;;;16.00;99.90;;;;;;4791666;29;20045;-77
2021/07/10 03:45:12;;;;;;;19.10;14.10;;;16.00;99.90;;;;;;4752788;29;20051;-77
2021/07/10 03:47:38;;;;;;;18.20;13.85;;;15.90;99.90;;;;;;4766846;29;20058;-77
2021/07/10 03:50:07;;;;;;;17.25;13.10;;;15.90;99.90;;;;;;4780638;29;20526;-77
2021/07/10 03:52:34;;;;;;;23.05;15.02;;;15.90;99.90;;;;;;4780757;29;20463;-77
2021/07/10 03:55:01;;;;;;;17.70;13.65;;;15.90;99.90;;;;;;4787048;29;20035;-77
2021/07/10 03:57:28;;;;;;;18.45;13.63;;;15.90;99.90;;;;;;4771036;29;20046;-77
2021/07/10 03:59:55;;;;;;;19.20;14.10;;;15.90;99.90;;;;;;4755524;29;20050;-77
2021/07/10 04:02:21;;;;;;;17.08;12.65;;;15.90;99.90;;;;;;4791933;29;20407;-77
2021/07/10 04:04:48;;;;;;;16.77;12.43;;;15.90;99.90;;;;;;4792563;29;20077;-77
2021/07/10 04:07:14;;;;;;;18.85;14.10;;;16.00;99.90;;;;;;4762862;29;20054;-77
2021/07/10 04:09:41;;;;;;;19.20;13.90;;;16.00;99.90;;;;;;4770228;29;20034;-77
2021/07/10 04:12:07;;;;;;;19.85;14.77;;;16.00;99.90;;;;;;4790295;29;20612;-77
2021/07/10 04:14:36;;;;;;;22.58;15.48;;;16.10;99.90;;;;;;4793033;29;20394;-77
2021/07/10 04:17:03;;;;;;;19.83;14.00;;;16.10;99.90;;;;;;4790204;29;20054;-77
2021/07/10 04:19:30;;;;;;;23.42;14.75;;;16.20;99.90;;;;;;4776210;29;20081;-77
2021/07/10 04:21:56;;;;;;;16.02;12.38;;;16.30;99.90;;;;;;4772910;29;20380;-77
2021/07/10 04:24:23;;;;;;;16.27;13.27;;;16.30;99.90;;;;;;4788472;29;20042;-77
2021/07/10 04:26:49;;;;;;;17.60;13.65;;;16.30;99.90;;;;;;4788318;29;20043;-77
2021/07/10 04:29:15;;;;;;;23.23;14.55;;;16.40;99.90;;;;;;4774314;29;20065;-77
2021/07/10 04:31:42;;;;;;;16.85;14.07;;;16.50;99.90;;;;;;4772905;29;20047;-83
2021/07/10 04:34:09;;;;;;;20.77;14.65;;;16.60;99.90;;;;;;4761458;29;20051;-81
2021/07/10 04:36:35;;;;;;;19.80;14.40;;;16.60;99.90;;;;;;4777269;29;20045;-83
2021/07/10 04:39:02;;;;;;;17.80;14.02;;;16.70;99.90;;;;;;4773050;29;20046;-81
2021/07/10 04:41:28;;;;;;;19.65;14.40;;;16.80;99.90;;;;;;4770607;29;20071;-82
2021/07/10 04:43:55;;;;;;;20.10;14.70;;;16.90;99.90;;;;;;4773554;29;20041;-79
2021/07/10 04:46:21;;;;;;;18.92;13.77;;;16.90;99.90;;;;;;4768287;29;20506;-77
2021/07/10 04:48:48;;;;;;;17.98;13.70;;;17.10;99.90;;;;;;4802138;29;20384;-79
2021/07/10 04:51:15;;;;;;;17.75;12.75;;;17.10;99.90;;;;;;4787875;29;20643;-79
2021/07/10 04:53:42;;;;;;;18.48;13.02;;;17.20;99.90;;;;;;4786561;29;20464;-79
2021/07/10 04:56:08;;;;;;;17.63;14.07;;;17.30;99.90;;;;;;4755791;29;20826;-80
2021/07/10 04:58:35;;;;;;;17.70;14.02;;;17.40;99.90;;;;;;4771401;29;20414;-79
2021/07/10 05:01:01;;;;;;;21.20;16.13;;;17.50;99.90;;;;;;4788227;29;20506;-81
2021/07/10 05:03:27;;;;;;;20.23;16.02;;;17.60;99.90;;;;;;4785677;29;20471;-78
2021/07/10 05:05:54;;;;;;;21.08;15.43;;;17.70;99.90;;;;;;4784559;29;20039;-81
2021/07/10 05:08:20;;;;;;;22.02;15.98;;;17.80;99.90;;;;;;4768668;29;20046;-77
2021/07/10 05:10:47;;;;;;;22.52;15.65;;;17.90;99.90;;;;;;4800062;29;20494;-78
2021/07/10 05:13:13;;;;;;;21.38;16.52;;;18.00;99.90;;;;;;4784847;29;20023;-78
2021/07/10 05:15:39;;;;;;;23.35;16.55;;;18.10;99.90;;;;;;4800153;29;20042;-78
2021/07/10 05:18:07;;;;;;;23.00;17.75;;;18.10;99.90;;;;;;4747650;29;20508;-78
2021/07/10 05:20:33;;;;;;;22.92;18.02;;;18.20;99.90;;;;;;4783021;29;20058;-79
2021/07/10 05:23:00;;;;;;;23.25;17.75;;;18.30;99.90;;;;;;4799678;29;20043;-80
2021/07/10 05:25:26;;;;;;;20.75;16.73;;;18.40;99.90;;;;;;4786705;29;20462;-79
2021/07/10 05:27:52;;;;;;;23.98;16.42;;;18.50;99.90;;;;;;4770699;29;20043;-80
2021/07/10 05:30:19;;;;;;;21.67;15.93;;;18.50;99.90;;;;;;4802508;29;20038;-78
2021/07/10 05:32:46;;;;;;;23.15;17.23;;;18.60;99.90;;;;;;4804552;29;20053;-79
2021/07/10 05:35:15;;;;;;;22.25;16.60;;;18.80;99.90;;;;;;4788485;29;20419;-79
2021/07/10 05:37:42;;;;;;;21.85;17.27;;;18.90;99.90;;;;;;4772067;29;20050;-78
2021/07/10 05:40:08;;;;;;;25.23;18.90;;;19.10;99.90;;;;;;4767010;29;20830;-78
2021/07/10 05:42:35;;;;;;;24.30;18.70;;;19.20;99.90;;;;;;4774051;29;20139;-79
2021/07/10 05:45:02;;;;;;;25.00;17.85;;;19.40;99.90;;;;;;4766695;29;20053;-79
2021/07/10 05:47:28;;;;;;;27.48;19.88;;;19.60;99.90;;;;;;4768409;29;20481;-78
2021/07/10 05:49:55;;;;;;;25.20;17.95;;;19.70;99.90;;;;;;4768997;29;20051;-79
2021/07/10 05:52:21;;;;;;;25.65;18.75;;;19.80;99.90;;;;;;4789218;29;20061;-79
2021/07/10 05:54:47;;;;;;;26.52;19.08;;;20.00;99.90;;;;;;4785322;29;20047;-79
2021/07/10 05:57:14;;;;;;;24.42;17.23;;;20.10;99.90;;;;;;4769395;29;20042;-79
2021/07/10 05:59:40;;;;;;;27.30;20.52;;;20.20;99.90;;;;;;4768740;29;20043;-78
2021/07/10 06:02:08;;;;;;;21.55;18.02;;;20.30;99.90;;;;;;4749005;29;20058;-79
2021/07/10 06:04:35;;;;;;;27.02;20.70;;;20.40;99.90;;;;;;4769166;29;20054;-78
2021/07/10 06:07:02;;;;;;;23.20;18.75;;;20.50;99.90;;;;;;4783668;29;20051;-78
2021/07/10 06:09:29;;;;;;;26.20;19.77;;;20.70;99.90;;;;;;4788085;29;20055;-78
2021/07/10 06:11:56;;;;;;;25.77;19.75;;;20.90;99.90;;;;;;4769544;29;20046;-77
2021/07/10 06:14:22;;;;;;;27.50;21.05;;;21.10;99.90;;;;;;4783149;29;20043;-78
2021/07/10 06:16:49;;;;;;;25.20;20.92;;;21.30;99.70;;;;;;4800993;29;20049;-77
2021/07/10 06:19:15;;;;;;;29.63;23.48;;;21.40;99.50;;;;;;4785602;29;20431;-77
2021/07/10 06:21:41;;;;;;;27.00;20.83;;;21.50;98.90;;;;;;4806197;29;20047;-77
2021/07/10 06:24:08;;;;;;;26.23;22.13;;;21.60;98.60;;;;;;4775373;29;20042;-77
2021/07/10 06:26:34;;;;;;;25.15;19.80;;;21.60;98.10;;;;;;4788314;29;20046;-77
2021/07/10 06:29:02;;;;;;;22.15;17.65;;;21.70;98.00;;;;;;4773993;29;20059;-77
2021/07/10 06:31:28;;;;;;;26.25;20.48;;;21.80;97.80;;;;;;4788085;29;20039;-77
2021/07/10 06:33:55;;;;;;;27.95;22.25;;;21.90;97.40;;;;;;4804508;29;20039;-77
2021/07/10 06:36:21;;;;;;;27.70;21.70;;;21.90;97.00;;;;;;4787908;29;20062;-81
2021/07/10 06:38:48;;;;;;;24.27;19.88;;;21.90;96.60;;;;;;4780732;29;20050;-80
2021/07/10 06:41:14;;;;;;;27.98;22.60;;;22.00;96.40;;;;;;4767714;29;20079;-80
2021/07/10 06:43:41;;;;;;;22.85;19.33;;;22.00;96.20;;;;;;4783433;29;20169;-80
2021/07/10 06:46:07;;;;;;;25.23;20.60;;;22.00;96.10;;;;;;4782503;29;20073;-77
2021/07/10 06:48:35;;;;;;;23.33;19.27;;;22.10;96.00;;;;;;4800126;29;20039;-77
2021/07/10 06:51:02;;;;;;;22.95;18.63;;;22.20;95.90;;;;;;4800222;29;20039;-77
2021/07/10 06:53:28;;;;;;;19.88;16.27;;;22.40;95.60;;;;;;4784413;29;20403;-77
2021/07/10 06:55:55;;;;;;;22.25;19.20;;;22.50;95.30;;;;;;4802560;29;20046;-77
2021/07/10 06:58:22;;;;;;;28.58;23.25;;;22.60;95.00;;;;;;4769379;29;20058;-77
2021/07/10 07:00:49;;;;;;;23.10;19.55;;;22.70;94.70;;;;;;4806511;29;20050;-77
2021/07/10 07:03:16;;;;;;;25.27;20.58;;;22.70;94.60;;;;;;4806439;29;20042;-77
2021/07/10 07:05:42;;;;;;;24.38;21.02;;;22.80;94.30;;;;;;4777122;29;20050;-77
2021/07/10 07:08:09;;;;;;;23.17;19.70;;;22.80;94.10;;;;;;4786408;29;20050;-77
2021/07/10 07:10:35;;;;;;;20.80;17.17;;;22.90;93.90;;;;;;4789837;29;20833;-77
2021/07/10 07:13:02;;;;;;;19.58;17.42;;;23.00;93.80;;;;;;4770803;29;20054;-78
2021/07/10 07:15:29;;;;;;;20.27;15.07;;;23.10;93.60;;;;;;4758480;29;20050;-78
2021/07/10 07:17:55;;;;;;;21.25;16.23;;;23.10;93.40;;;;;;4772333;29;20058;-77
2021/07/10 07:20:23;;;;;;;18.17;15.93;;;23.10;93.20;;;;;;4785847;29;20062;-77
2021/07/10 07:22:50;;;;;;;23.83;17.25;;;23.10;93.20;;;;;;4770911;29;20066;-77
2021/07/10 07:25:18;;;;;;;20.92;17.65;;;23.20;93.10;;;;;;4798594;29;20407;-77
2021/07/10 07:27:47;;;;;;;20.15;17.30;;;23.20;93.10;;;;;;4798696;29;20512;-77
2021/07/10 07:30:14;;;;;;;18.48;16.00;;;23.30;93.00;;;;;;4807396;29;20050;-77
2021/07/10 07:32:40;;;;;;;22.77;18.85;;;23.50;92.90;;;;;;4790496;29;20046;-77
2021/07/10 07:35:09;;;;;;;22.10;16.95;;;23.50;92.70;;;;;;4787696;29;20074;-78
2021/07/10 07:37:36;;;;;;;19.20;14.55;;;23.60;92.50;;;;;;4788376;29;20066;-76
2021/07/10 07:40:07;;;;;;;16.88;15.07;;;23.60;92.40;;;;;;4799583;29;20037;-76
2021/07/10 07:42:33;;;;;;;18.27;15.35;;;23.70;92.40;;;;;;4802268;29;20411;-75
2021/07/10 07:45:00;;;;;;;18.92;16.92;;;23.80;92.20;;;;;;4803425;29;20037;-75
2021/07/10 07:47:26;;;;;;;19.50;16.35;;;23.80;91.80;;;;;;4772130;29;20071;-76
2021/07/10 07:49:52;;;;;;;21.15;17.35;;;23.90;91.80;;;;;;4786843;29;20047;-76
2021/07/10 07:52:19;;;;;;;25.75;18.73;;;24.00;91.80;;;;;;4786702;29;20059;-76
2021/07/10 07:54:45;;;;;;;19.40;16.98;;;24.10;91.60;;;;;;4803328;29;20042;-76
2021/07/10 07:57:12;;;;;;;20.02;17.80;;;24.20;91.30;;;;;;4789397;29;20399;-75
2021/07/10 07:59:38;;;;;;;22.80;18.05;;;24.20;91.00;;;;;;4789568;29;20066;-76
2021/07/10 08:02:05;;;;;;;16.42;14.30;;;24.20;90.80;;;;;;4800477;29;20042;-76
2021/07/10 08:04:31;;;;;;;15.98;14.05;;;24.10;90.80;;;;;;4787925;29;20038;-76
2021/07/10 08:06:57;;;;;;;16.95;13.93;;;24.10;90.90;;;;;;4789389;29;20055;-76
2021/07/10 08:09:24;;;;;;;18.45;16.13;;;24.20;90.80;;;;;;4789087;29;20065;-76
2021/07/10 08:11:50;;;;;;;19.42;17.27;;;24.30;90.60;;;;;;4784967;29;20043;-76
2021/07/10 08:14:16;;;;;;;18.45;15.57;;;24.40;90.50;;;;;;4787481;29;20055;-75
2021/07/10 08:16:44;;;;;;;15.30;12.88;;;24.50;90.20;;;;;;4804024;29;20615;-75
2021/07/10 08:19:10;;;;;;;15.80;12.98;;;24.60;90.10;;;;;;4787007;29;20487;-75
2021/07/10 08:21:37;;;;;;;17.63;14.88;;;24.80;90.10;;;;;;4801362;29;20050;-76
2021/07/10 08:24:04;;;;;;;16.90;14.50;;;25.00;89.80;;;;;;4800148;29;20054;-76
2021/07/10 08:26:30;;;;;;;22.13;15.38;;;25.10;89.10;;;;;;4787367;29;20145;-76
2021/07/10 08:28:57;;;;;;;19.15;15.85;;;25.00;88.70;;;;;;4788063;29;20059;-76
2021/07/10 08:31:23;;;;;;;15.02;13.40;;;24.90;88.50;;;;;;4787564;29;20043;-76
2021/07/10 08:33:50;;;;;;;22.73;16.88;;;24.80;89.00;;;;;;4785266;29;20545;-76
2021/07/10 08:36:16;;;;;;;14.52;12.73;;;24.90;88.70;;;;;;4802956;29;20050;-76
2021/07/10 08:38:43;;;;;;;16.33;12.93;;;25.00;88.40;;;;;;4771804;29;20031;-76
2021/07/10 08:41:11;;;;;;;15.25;12.90;;;25.00;88.20;;;;;;4785718;29;20051;-76
2021/07/10 08:43:39;;;;;;;19.30;14.85;;;25.10;88.00;;;;;;4804136;29;20038;-76
2021/07/10 08:46:08;;;;;;;14.15;11.90;;;25.10;86.80;;;;;;4798639;29;20118;-75
2021/07/10 08:48:35;;;;;;;15.55;12.55;;;25.10;86.80;;;;;;4784305;29;20051;-75
2021/07/10 08:51:03;;;;;;;13.70;10.55;;;25.10;86.00;;;;;;4785879;29;20043;-75
2021/07/10 08:53:30;;;;;;;14.20;12.50;;;25.10;86.30;;;;;;4767668;29;20043;-76
2021/07/10 08:55:57;;;;;;;13.60;10.90;;;25.20;86.20;;;;;;4776592;29;20043;-75
2021/07/10 08:58:23;;;;;;;15.48;13.73;;;25.30;85.50;;;;;;4802806;29;20057;-75
2021/07/10 09:00:50;;;;;;;14.98;12.82;;;25.30;83.70;;;;;;4785533;29;20423;-76
2021/07/10 09:03:18;;;;;;;13.73;10.68;;;25.10;83.90;;;;;;4805992;29;20043;-76
2021/07/10 09:05:45;;;;;;;12.38;10.48;;;25.10;84.60;;;;;;4805328;29;20043;-75
2021/07/10 09:08:22;;;;;;;13.10;11.73;;;25.20;85.20;;;;;;4788424;29;20042;-75
2021/07/10 09:10:49;;;;;;;11.40;9.40;;;25.30;84.50;;;;;;4787093;29;20590;-75
2021/07/10 09:13:17;;;;;;;8.18;7.07;;;25.30;83.70;;;;;;4805284;29;20042;-75
2021/07/10 09:15:44;;;;;;;8.45;6.80;;;25.30;83.70;;;;;;4804538;29;20050;-75
2021/07/10 09:18:13;;;;;;;8.48;5.25;;;25.40;82.60;;;;;;4786584;29;20470;-75
2021/07/10 09:20:41;;;;;;;7.82;5.72;;;25.40;82.00;;;;;;4799039;29;20491;-75
2021/07/10 09:23:29;;;;;;;6.93;4.60;;;25.40;80.30;;;;;;4787089;29;20512;-75
2021/07/10 09:26:15;;;;;;;8.18;5.88;;;25.30;80.80;;;;;;4801755;29;20069;-75
2021/07/10 09:28:42;;;;;;;8.68;6.45;;;25.40;81.60;;;;;;4803734;29;20070;-76
2021/07/10 09:31:25;;;;;;;10.48;7.43;;;25.40;81.80;;;;;;4760107;29;20035;-75
2021/07/10 09:33:56;;;;;;;7.38;5.63;;;25.50;81.00;;;;;;4773061;29;20046;-75
2021/07/10 09:36:25;;;;;;;4.63;3.05;;;25.50;80.50;;;;;;4774961;29;20114;-75
2021/07/10 09:38:53;;;;;;;4.60;2.95;;;25.60;79.00;;;;;;4784821;29;20403;-75
2021/07/10 09:41:26;;;;;;;3.63;2.83;;;25.70;78.20;;;;;;4785263;29;20519;-75
2021/07/10 09:43:56;;;;;;;4.95;2.70;;;25.90;77.40;;;;;;4789368;29;20137;-75
2021/07/10 09:46:27;;;;;;;5.45;4.13;;;26.00;77.00;;;;;;4790925;29;20054;-75
2021/07/10 09:48:55;;;;;;;4.05;3.58;;;26.20;76.70;;;;;;4787309;29;20054;-75
2021/07/10 09:51:27;;;;;;;5.30;3.80;;;26.40;76.20;;;;;;4803197;29;20062;-75
2021/07/10 09:54:01;;;;;;;5.45;3.83;;;26.60;76.20;;;;;;4786718;29;20089;-75
2021/07/10 09:56:29;;;;;;;5.57;4.40;;;26.70;75.60;;;;;;4792687;29;20056;-75
2021/07/10 09:58:58;;;;;;;4.22;2.78;;;26.90;74.80;;;;;;4799570;29;20041;-76
2021/07/10 10:01:36;;;;;;;3.72;2.40;;;27.10;74.10;;;;;;4769137;29;20090;-77
2021/07/10 10:04:20;;;;;;;3.38;2.38;;;27.20;72.80;;;;;;4801419;29;20051;-77
2021/07/10 10:06:47;;;;;;;3.67;3.22;;;27.30;71.10;;;;;;4808708;29;20053;-77
2021/07/10 10:09:20;;;;;;;5.00;3.22;;;27.10;70.20;;;;;;4785774;29;20042;-77
2021/07/10 10:11:57;;;;;;;4.15;2.05;;;27.00;70.30;;;;;;4789720;29;20043;-77
2021/07/10 10:14:30;;;;;;;2.97;1.95;;;27.00;69.10;;;;;;4799711;29;20035;-77
2021/07/10 10:16:58;;;;;;;2.13;1.20;;;27.00;69.30;;;;;;4804509;29;20058;-77
2021/07/10 10:19:29;;;;;;;2.38;1.80;;;27.00;68.40;;;;;;4800758;29;20042;-77
2021/07/10 10:21:58;;;;;;;2.53;1.48;;;27.00;67.90;;;;;;4801629;29;20042;-77
2021/07/10 10:24:27;;;;;;;2.47;1.52;;;27.10;68.20;;;;;;4771160;29;20059;-77
2021/07/10 10:26:57;;;;;;;2.83;1.65;;;27.20;68.10;;;;;;4802021;29;20050;-77
2021/07/10 10:29:25;;;;;;;2.92;2.10;;;27.30;68.00;;;;;;4786697;29;20434;-77
2021/07/10 10:31:52;;;;;;;3.45;1.77;;;27.30;67.10;;;;;;4773327;29;20043;-77
2021/07/10 10:34:20;;;;;;;5.65;2.25;;;27.30;67.40;;;;;;4800044;29;20045;-77
2021/07/10 10:36:49;;;;;;;2.97;2.05;;;27.40;67.10;;;;;;4785357;29;20121;-78
2021/07/10 10:39:18;;;;;;;3.30;1.73;;;27.50;66.80;;;;;;4805410;29;20425;-77
2021/07/10 10:41:53;;;;;;;3.25;2.20;;;27.60;66.80;;;;;;4800713;29;20050;-77
2021/07/10 10:44:20;;;;;;;4.65;2.58;;;27.80;66.00;;;;;;4802471;29;20039;-77
2021/07/10 10:46:55;;;;;;;2.70;1.95;;;28.00;65.60;;;;;;4790116;29;20053;-77
2021/07/10 10:49:41;;;;;;;4.45;2.08;;;28.10;65.50;;;;;;4803763;29;20038;-77
2021/07/10 10:52:41;;;;;;;3.55;2.40;;;28.50;65.10;;;;;;4803358;29;20046;-77
2021/07/10 10:55:15;;;;;;;4.22;3.08;;;28.90;64.20;;;;;;4786546;29;20510;-77
2021/07/10 10:57:51;;;;;;;3.42;2.55;;;29.20;63.70;;;;;;4769985;29;20046;-77
2021/07/10 11:00:23;;;;;;;3.45;2.80;;;29.60;63.10;;;;;;4789431;29;20051;-77
2021/07/10 11:02:49;;;;;;;5.45;3.95;;;29.80;61.10;;;;;;4803671;29;20042;-79
2021/07/10 11:05:34;;;;;;;2.95;2.22;;;30.00;58.60;;;;;;4775418;29;20047;-78
2021/07/10 11:08:23;;;;;;;4.50;3.17;;;30.00;58.00;;;;;;4787619;29;20517;-78
2021/07/10 11:10:58;;;;;;;5.07;3.53;;;29.80;57.70;;;;;;4796168;29;20038;-78
2021/07/10 11:13:26;;;;;;;3.15;1.90;;;29.60;57.90;;;;;;4798059;29;20850;-78
2021/07/10 11:16:20;;;;;;;2.72;2.10;;;29.30;58.30;;;;;;4801205;29;20054;-78
2021/07/10 11:18:55;;;;;;;2.80;2.45;;;29.20;56.90;;;;;;4802391;29;20070;-78
2021/07/10 11:21:31;;;;;;;4.57;3.65;;;29.20;57.80;;;;;;4803072;29;20256;-78
2021/07/10 11:24:15;;;;;;;6.30;3.83;;;29.20;58.20;;;;;;4802033;29;20050;-78
2021/07/10 11:26:56;;;;;;;5.13;3.70;;;29.40;58.50;;;;;;4786298;29;20043;-78
2021/07/10 11:29:38;;;;;;;5.13;3.72;;;29.40;58.20;;;;;;4800019;29;20054;-78
2021/07/10 11:32:25;;;;;;;8.40;4.85;;;29.40;58.40;;;;;;4804562;29;20062;-78
2021/07/10 11:34:59;;;;;;;5.57;4.97;;;29.40;58.70;;;;;;4785285;29;20055;-79
2021/07/10 11:37:44;;;;;;;5.78;4.35;;;29.40;56.90;;;;;;4773629;29;20043;-78
2021/07/10 11:40:11;;;;;;;4.95;4.32;;;29.10;57.90;;;;;;4784044;29;20039;-79
2021/07/10 11:42:44;;;;;;;7.03;5.03;;;29.10;59.30;;;;;;4785768;29;20057;-78
2021/07/10 11:45:15;;;;;;;6.13;4.00;;;29.20;59.10;;;;;;4800555;29;20395;-79
2021/07/10 11:47:43;;;;;;;3.92;3.63;;;29.30;58.00;;;;;;4802136;29;20042;-78
2021/07/10 11:50:33;;;;;;;5.28;4.78;;;29.20;57.60;;;;;;4785882;29;20058;-79
2021/07/10 11:53:07;;;;;;;7.40;4.90;;;29.00;58.20;;;;;;4797302;29;20042;-79
2021/07/10 11:55:36;;;;;;;5.82;5.22;;;29.00;58.60;;;;;;4802938;29;20031;-79
2021/07/10 11:58:11;;;;;;;6.70;4.40;;;29.10;58.50;;;;;;4800962;29;20034;-79
2021/07/10 12:00:38;;;;;;;5.95;4.10;;;29.50;58.10;;;;;;4770972;29;20042;-79
2021/07/10 12:03:24;;;;;;;4.43;3.67;;;30.10;57.40;;;;;;4800640;29;20399;-79
2021/07/10 12:05:52;;;;;;;6.15;4.65;;;30.60;56.30;;;;;;4785773;29;20038;-79
2021/07/10 12:08:20;;;;;;;4.50;3.35;;;30.60;55.00;;;;;;4797435;29;20463;-79
2021/07/10 12:10:50;;;;;;;4.10;3.30;;;30.50;55.30;;;;;;4768654;29;20059;-79
2021/07/10 12:13:25;;;;;;;4.97;4.47;;;30.70;56.10;;;;;;4798029;29;20357;-79
2021/07/10 12:15:56;;;;;;;4.82;4.30;;;31.00;55.90;;;;;;4806689;29;20494;-79
2021/07/10 12:18:24;;;;;;;5.72;4.25;;;31.20;53.10;;;;;;4802419;29;20050;-79
2021/07/10 12:20:57;;;;;;;4.68;3.88;;;31.30;53.20;;;;;;4804833;29;20058;-78
2021/07/10 12:23:32;;;;;;;1.88;1.10;;;31.50;51.80;;;;;;4808945;29;20038;-80
2021/07/10 12:26:08;;;;;;;3.58;1.40;;;31.80;49.60;;;;;;4792485;29;20065;-80
2021/07/10 12:28:46;;;;;;;3.00;2.17;;;32.20;48.60;;;;;;4801763;29;20501;-79
2021/07/10 12:31:21;;;;;;;2.63;1.73;;;32.90;47.80;;;;;;4787251;29;20060;-80
2021/07/10 12:33:53;;;;;;;2.67;1.33;;;33.40;47.00;;;;;;4802845;29;20043;-80
2021/07/10 12:36:30;;;;;;;2.45;1.20;;;33.90;45.60;;;;;;4806607;29;20027;-80
2021/07/10 12:39:02;;;;;;;2.65;1.65;;;34.20;43.80;;;;;;4803735;29;20046;-79
2021/07/10 12:41:43;;;;;;;3.83;1.77;;;34.50;42.40;;;;;;4800794;29;20046;-81